Ride Results

Oss Foley Memorial Ride (31-10-2015)
Ride distance: 80.0 km

Outcomes - Oss Foley Memorial Ride (31-10-2015)
Division No. of Entries Retired / DNE Completed Withdrawn Ineligible V/O Percentage Completed
HW 7 - 2 1 - 4 28.57%
MW 16 - 15 - - 1 93.75%
LW 15 - 13 - 1 1 86.67%
JN 14 - 10 1 - 3 71.43%
Totals 52 - 40 2 1 9 76.92%
Results - Oss Foley Memorial Ride (31-10-2015)
No. Rider Horse Place Time Leg Speeds Total
Km/Hr
H/R bpm
Heavyweight
272 Greg Cowen Marshdale Cheeky Lad 1 (BC) 6:28:00 13.1, 11.6 12.37 40, 43, 45 (Avg:44)
199 Dennis Foley Jnr Pyrenees Zebadee 2 7:55:00 10.5, 9.7 10.11 42, 47, 50 (Avg:48)
122 Ged Nicklason Wongawol Legend Lame L2 0:00:00 17.0, 11.1 - 35, 45, 48 (Avg:46)
82 Mark Dunn Calypso Lame L1 0:00:00 11.7 - 38, 46 (Avg:46)
137 John Shoobridge Tex Withdrawn L1 0:00:00 - - 43, 47 (Avg:47)
M Sarah Wells Shadha Nitesh Heart Rate L1 0:00:00 10.5 - 46, 60 (Avg:60)
166 Craig Wilson Stellar Express Heart Rate L1 0:00:00 11.7 - 44, 73 (Avg:73)
Middleweight
179 Debbie Grull Lauralyn Notorious 1 (BC) 4:43:10 17.0, 16.8 16.95 50, 47, 55 (Avg:51)
114 Tara Nicklason Wattlelea Zaharra 2 5:57:20 17.0, 11.0 13.43 40, 53, 57 (Avg:55)
271 Jessie Herman DVS Sunsilk 3 6:28:00 13.1, 11.7 12.37 48, 51, 52 (Avg:51)
79 Shannon Hill Glendhu Chester 3 6:28:00 12.4, 12.3 12.37 48, 47, 55 (Avg:51)
77 Brad Hill Zane 3 6:28:00 12.4, 12.3 12.37 33, 44, 60 (Avg:52)
80 Noel Lockhart The Hobbit 3 6:28:00 12.4, 12.3 12.37 34, 45, 56 (Avg:50)
276 Naomi Maxwell Ben 3 6:28:00 13.1, 11.7 12.37 38, 37, 43 (Avg:40)
76 Karin Morris Follydown Mystify (au) 3 6:28:00 12.6, 12.0 12.37 44, 43, 47 (Avg:45)
165 Danielle Taylor Touchwarr Zamba 3 6:28:00 13.1, 11.7 12.37 41, 44, 52 (Avg:48)
261 Lynette Walker Liandra 3 6:28:00 13.1, 11.7 12.37 36, 54, 56 (Avg:55)
256 Wendy Smith Sir Angus of Seven Oaks 11 7:31:00 11.9, 9.5 10.64 36, 46, 49 (Avg:47)
157 Tim Baumann Vandieman Geronimo 12 7:46:00 11.8, 9.0 10.30 38, 50, 48 (Avg:49)
92 Blaine Astell Karshna Ebony 13 7:53:00 10.3, 9.9 10.15 40, 51, 57 (Avg:54)
302 Gemma Casey Harashio 14 7:54:00 11.5, 9.0 10.13 37, 46, 58 (Avg:52)
285 Hussain Ali AlMarzooqi Amire 15 8:25:00 10.5, 8.6 9.50 47, 50, 56 (Avg:53)
232 Angela Gatti Bellatrix Lodge Sahriaal Heart Rate L1 0:00:00 11.7 - 42, 60 (Avg:60)
Lightweight
265 Annemaree Kelly Yandilla Ultimate Affair 1 (BC) 5:53:00 15.5, 12.0 13.60 44, 47, 54 (Avg:50)
125 Brooke Brown-Cordell Vandieman Tyra 2 6:28:00 12.7, 11.9 12.37 53, 46, 58 (Avg:52)
19 Sonia Hodgetts Wendy Lalani 3 6:28:01 12.7, 11.9 12.37 39, 46, 60 (Avg:53)
42 Dianne Walsh Kalkadoon Malachi 3 6:28:01 12.6, 12.0 12.37 38, 48, 50 (Avg:49)
191 Loren Simonetta Kalody Park Zayeem 5 6:36:00 13.1, 11.2 12.12 46, 48, 59 (Avg:53)
69 Felicity Perry Ace of Moravian 6 7:15:00 12.1, 10.0 11.03 35, 46, 49 (Avg:47)
70 Chels Royer AT Dial Range Raphael 6 7:15:00 12.1, 10.0 11.03 41, 41, 45 (Avg:43)
115 Jenny Keygan Woodsong Kasanova 8 7:31:00 11.9, 9.5 10.64 29, 40, 46 (Avg:43)
100 Trish Smith Beaucheval Akhiran 9 7:33:00 11.7, 9.6 10.60 36, 45, 50 (Avg:47)
291 Kirsty Goss Highland View Barbara 10 7:52:00 10.9, 9.4 10.17 35, 38, 45 (Avg:41)
29 Kristy Keep Samson of Glendhu 10 7:52:00 10.9, 9.4 10.17 36, 42, 55 (Avg:48)
90 Angela Hawks Cincinnati 12 7:53:00 10.3, 9.9 10.15 41, 42, 43 (Avg:42)
305 Julie Carter Harmere Burkhan 13 8:12:00 10.5, 9.0 9.76 32, 46, 52 (Avg:49)
83 Angie Clark Byrnlea Park Vyrtigo Not started P/R 0:00:00 - - 38
74 Felicity Perry Jaggah Ka Lame P/R 0:00:00 - - 32
Junior
249 Corey Foley DJ Ernie 1 6:05:15 15.5, 11.3 13.14 37, 50, 60 (Avg:55)
156 Bella Pickering Vandieman Trojen 2 6:28:00 12.7, 11.9 12.37 34, 45, 57 (Avg:51)
290 Jessica Williams Jaimon-Sharhi Baqi 2 6:28:00 15.3, 10.3 12.37 42, 47, 54 (Avg:50)
127 Jaz Hutchins Razorback Silver Wings 4 (BC) 6:28:01 12.6, 12.0 12.37 35, 43, 51 (Avg:47)
113 Kirstie Lockhart Lord Stuart of Seven Oaks 4 6:28:01 12.4, 12.3 12.37 43, 47, 56 (Avg:51)
168 Emily Gerke Armidale Flash Jack 6 7:34:00 11.4, 9.7 10.57 36, 40, 50 (Avg:45)
288 David Anderson Jnr BBP Pocahontus 7 7:46:00 11.8, 9.0 10.30 44, 51, 51 (Avg:51)
209 Grace Huxtable Graceton TJ Tonka 8 7:52:00 10.9, 9.4 10.17 39, 55, 60 (Avg:57)
308 Ella Carter Envios 9 8:12:00 10.5, 9.0 9.76 43, 50, 58 (Avg:54)
192 Indianna Humphries Santanova 9 8:12:00 10.5, 9.0 9.76 42, 49, 54 (Avg:51)
292 Holli Anthony OToole Vandieman Princess Ellie Lame L2 0:00:00 16.2, 18.6 - 47, 45, 56 (Avg:50)
297 Brittany Farrell Awarran Park Starlite Shayde Withdrawn L2 0:00:00 - - 31, 44, 45 (Avg:44)
279 Georgia Burley Awarran Park Silver Starlite Heart Rate L1 0:00:00 15.3 - 44, 59 (Avg:59)
277 Heather Colbeck Awarran Park Princely Aura Heart Rate L1 0:00:00 25.8 - 38, 88 (Avg:88)